createdAt,value
2023-04-26T00:00:10.065Z,98962.44
2023-04-26T00:02:38.620Z,98958.28
2023-04-26T00:05:09.587Z,98961.88
2023-04-26T00:07:39.569Z,98967.38
2023-04-26T00:10:09.690Z,98965.72
2023-04-26T00:12:38.585Z,98970.13
2023-04-26T00:15:08.712Z,98972.97
2023-04-26T00:17:37.661Z,98976.84
2023-04-26T00:20:11.760Z,98976.06
2023-04-26T00:22:41.836Z,98983.84
2023-04-26T00:25:12.605Z,98979.97
2023-04-26T00:27:40.970Z,98970.13
2023-04-26T00:30:11.347Z,98980.06
2023-04-26T00:32:39.895Z,98982.84
2023-04-26T00:35:12.427Z,98986.16
2023-04-26T00:37:42.399Z,98988.66
2023-04-26T00:40:12.672Z,98990.88
2023-04-26T00:42:41.462Z,98994.72
2023-04-26T00:45:10.863Z,99002.72
2023-04-26T00:47:39.545Z,98988.13
2023-04-26T00:50:10.713Z,98999.13
2023-04-26T00:52:39.958Z,98992.81
2023-04-26T00:55:11.468Z,98997.78
2023-04-26T00:57:41.135Z,98996.66
2023-04-26T01:00:12.232Z,98995.56
2023-04-26T01:02:41.684Z,99000.50
2023-04-26T01:05:11.216Z,99000.75
2023-04-26T01:07:39.909Z,98993.84
2023-04-26T01:10:11.269Z,98992.75
2023-04-26T01:12:40.331Z,98998.50
2023-04-26T01:15:10.863Z,98990.50
2023-04-26T01:17:39.823Z,98991.31
2023-04-26T01:20:12.228Z,98986.34
2023-04-26T01:22:42.751Z,98992.69
2023-04-26T01:25:13.798Z,98995.72
2023-04-26T01:27:42.227Z,99006.44
2023-04-26T01:30:11.769Z,99004.53
2023-04-26T01:32:40.435Z,99010.88
2023-04-26T01:35:09.766Z,99014.97
2023-04-26T01:37:38.187Z,99013.59
2023-04-26T01:40:10.605Z,99012.75
2023-04-26T01:42:39.041Z,99012.47
2023-04-26T01:45:08.902Z,99016.88
2023-04-26T01:47:37.467Z,99021.25
2023-04-26T01:50:07.716Z,99020.47
2023-04-26T01:52:36.328Z,99026.22
2023-04-26T01:55:05.422Z,99019.88
2023-04-26T01:57:35.220Z,99032.81
2023-04-26T02:00:04.946Z,99024.84
2023-04-26T02:02:33.365Z,99027.06
2023-04-26T02:05:01.865Z,99034.53
2023-04-26T02:07:30.879Z,99032.09
2023-04-26T02:09:59.215Z,99023.91
2023-04-26T02:12:27.837Z,99028.34
2023-04-26T02:14:57.815Z,99028.09
2023-04-26T02:17:29.329Z,99031.44
2023-04-26T02:19:57.784Z,99041.91
2023-04-26T02:22:26.780Z,99035.06
2023-04-26T02:24:55.373Z,99030.41
2023-04-26T02:27:23.781Z,99035.91
2023-04-26T02:29:52.130Z,99026.34
2023-04-26T02:32:21.973Z,99029.09
2023-04-26T02:34:50.718Z,99031.84
2023-04-26T02:37:19.205Z,99029.34
2023-04-26T02:39:52.162Z,99029.34
2023-04-26T02:42:20.561Z,99041.19
2023-04-26T02:44:48.974Z,99032.09
2023-04-26T02:47:17.518Z,99031.84
2023-04-26T02:49:47.252Z,99042.59
2023-04-26T02:52:15.634Z,99039.84
2023-04-26T02:54:44.023Z,99043.13
2023-04-26T02:57:12.597Z,99032.97
2023-04-26T02:59:41.023Z,99027.22
2023-04-26T03:02:09.494Z,99036.81
2023-04-26T03:04:38.406Z,99042.03
2023-04-26T03:07:08.205Z,99047.25
2023-04-26T03:09:38.251Z,99057.97
2023-04-26T03:12:08.029Z,99052.75
2023-04-26T03:14:36.624Z,99054.41
2023-04-26T03:17:05.085Z,99040.13
2023-04-26T03:19:33.668Z,99051.09
2023-04-26T03:22:02.064Z,99048.34
2023-04-26T03:24:31.847Z,99043.69
2023-04-26T03:27:00.271Z,99045.03
2023-04-26T03:29:28.836Z,99048.31
2023-04-26T03:31:57.980Z,99043.13
2023-04-26T03:34:27.452Z,99042.56
2023-04-26T03:36:56.019Z,99052.72
2023-04-26T03:39:24.406Z,99052.16
2023-04-26T03:41:54.208Z,99064.25
2023-04-26T03:44:22.937Z,99073.59
2023-04-26T03:46:51.343Z,99079.34
2023-04-26T03:49:19.742Z,99075.75
2023-04-26T03:51:48.134Z,99085.09
2023-04-26T03:54:16.845Z,99076.03
2023-04-26T03:56:45.234Z,99072.22
2023-04-26T03:59:15.139Z,99071.94
2023-04-26T04:01:43.507Z,99074.38
2023-04-26T04:04:12.188Z,99073.03
2023-04-26T04:06:40.816Z,99077.69
2023-04-26T04:09:09.263Z,99073.84
2023-04-26T04:11:37.685Z,99073.84
2023-04-26T04:14:06.177Z,99075.25
2023-04-26T04:16:35.948Z,99084.84
2023-04-26T04:19:05.207Z,99086.78
2023-04-26T04:21:33.731Z,99097.47
2023-04-26T04:24:03.465Z,99089.22
2023-04-26T04:26:31.832Z,99101.06
2023-04-26T04:29:08.710Z,99108.22
2023-04-26T04:31:40.177Z,99103.81
2023-04-26T04:34:08.836Z,99109.84
2023-04-26T04:36:38.780Z,99115.09
2023-04-26T04:39:12.522Z,99114.81
2023-04-26T04:41:47.652Z,99112.59
2023-04-26T04:44:16.893Z,99109.88
2023-04-26T04:46:47.111Z,99120.84
2023-04-26T04:49:15.941Z,99121.69
2023-04-26T04:51:44.378Z,99121.41
2023-04-26T04:54:13.642Z,99117.28
2023-04-26T04:56:42.669Z,99118.13
2023-04-26T04:59:11.581Z,99122.25
2023-04-26T05:01:40.031Z,99131.88
2023-04-26T05:04:10.028Z,99127.47
2023-04-26T05:06:38.847Z,99120.63
2023-04-26T05:09:07.238Z,99120.88
2023-04-26T05:11:35.749Z,99130.25
2023-04-26T05:14:04.214Z,99131.06
2023-04-26T05:16:32.867Z,99127.25
2023-04-26T05:19:01.261Z,99133.28
2023-04-26T05:21:31.645Z,99136.56
2023-04-26T05:24:00.005Z,99134.38
2023-04-26T05:26:28.536Z,99143.19
2023-04-26T05:28:57.084Z,99134.94
2023-04-26T05:31:26.166Z,99144.88
2023-04-26T05:33:54.814Z,99151.72
2023-04-26T05:36:23.327Z,99148.69
2023-04-26T05:38:53.112Z,99142.09
2023-04-26T05:41:21.516Z,99136.84
2023-04-26T05:43:49.996Z,99144.00
2023-04-26T05:46:18.444Z,99148.09
2023-04-26T05:48:47.000Z,99151.34
2023-04-26T05:51:16.068Z,99155.41
2023-04-26T05:53:44.443Z,99150.69
2023-04-26T05:56:14.248Z,99153.13
2023-04-26T05:58:42.610Z,99164.44
2023-04-26T06:01:12.407Z,99165.75
2023-04-26T06:03:41.029Z,99166.34
2023-04-26T06:06:09.659Z,99173.47
2023-04-26T06:08:38.506Z,99174.03
2023-04-26T06:11:07.062Z,99177.59
2023-04-26T06:13:36.784Z,99173.44
2023-04-26T06:16:05.902Z,99170.06
2023-04-26T06:18:34.276Z,99175.81
2023-04-26T06:21:02.755Z,99179.06
2023-04-26T06:23:31.180Z,99190.34
2023-04-26T06:25:59.534Z,99193.84
2023-04-26T06:28:28.158Z,99195.44
2023-04-26T06:30:57.998Z,99200.63
2023-04-26T06:33:26.427Z,99193.66
2023-04-26T06:35:54.784Z,99192.50
2023-04-26T06:38:23.125Z,99197.72
2023-04-26T06:40:51.545Z,99191.03
2023-04-26T06:43:19.982Z,99192.38
2023-04-26T06:45:48.338Z,99200.34
2023-04-26T06:48:18.079Z,99203.28
2023-04-26T06:50:46.454Z,99206.00
2023-04-26T06:53:15.294Z,99208.13
2023-04-26T06:55:43.660Z,99203.38
2023-04-26T06:58:12.249Z,99210.50
2023-04-26T07:00:40.721Z,99210.50
2023-04-26T07:03:09.276Z,99203.78
2023-04-26T07:05:41.069Z,99202.59
2023-04-26T07:08:09.673Z,99204.94
2023-04-26T07:10:38.301Z,99199.31
2023-04-26T07:13:09.312Z,99206.38
2023-04-26T07:15:38.025Z,99202.94
2023-04-26T07:18:06.564Z,99194.53
2023-04-26T07:20:35.056Z,99204.16
2023-04-26T07:23:04.846Z,99202.19
2023-04-26T07:25:33.230Z,99201.41
2023-04-26T07:28:01.689Z,99215.81
2023-04-26T07:30:32.555Z,99199.06
2023-04-26T07:33:02.255Z,99209.59
2023-04-26T07:35:30.873Z,99207.31
2023-04-26T07:37:59.521Z,99200.81
2023-04-26T07:40:29.890Z,99200.41
2023-04-26T07:42:58.367Z,99206.78
2023-04-26T07:45:27.016Z,99206.91
2023-04-26T07:47:55.538Z,99207.75
2023-04-26T07:50:25.292Z,99206.13
2023-04-26T07:52:53.783Z,99210.00
2023-04-26T07:55:22.401Z,99218.59
2023-04-26T07:57:52.289Z,99208.44
2023-04-26T08:00:22.467Z,99220.91
2023-04-26T08:02:51.164Z,99210.44
2023-04-26T08:05:20.355Z,99214.34
2023-04-26T08:07:49.028Z,99220.16
2023-04-26T08:10:17.683Z,99211.03
2023-04-26T08:12:46.355Z,99212.63
2023-04-26T08:15:16.349Z,99217.47
2023-04-26T08:17:44.813Z,99216.81
2023-04-26T08:20:14.307Z,99213.34
2023-04-26T08:22:42.630Z,99218.22
2023-04-26T08:25:12.348Z,99211.28
2023-04-26T08:27:41.241Z,99217.53
2023-04-26T08:30:11.079Z,99204.75
2023-04-26T08:32:41.025Z,99207.41
2023-04-26T08:35:10.811Z,99215.56
2023-04-26T08:37:39.649Z,99209.28
2023-04-26T08:40:10.736Z,99209.72
2023-04-26T08:42:44.172Z,99211.44
2023-04-26T08:45:13.247Z,99211.38
2023-04-26T08:47:46.305Z,99213.66
2023-04-26T08:50:17.053Z,99220.13
2023-04-26T08:52:45.728Z,99223.63
2023-04-26T08:55:16.438Z,99225.88
2023-04-26T08:57:46.991Z,99225.97
2023-04-26T09:00:17.442Z,99227.28
2023-04-26T09:02:51.292Z,99233.66
2023-04-26T09:05:24.529Z,99234.66
2023-04-26T09:07:59.023Z,99233.13
2023-04-26T09:10:28.254Z,99226.84
2023-04-26T09:12:57.429Z,99218.25
2023-04-26T09:15:27.660Z,99226.03
2023-04-26T09:17:57.537Z,99223.00
2023-04-26T09:20:27.906Z,99209.41
2023-04-26T09:23:06.861Z,99204.47
2023-04-26T09:25:36.220Z,99199.66
2023-04-26T09:28:06.129Z,99207.75
2023-04-26T09:30:40.830Z,99199.53
2023-04-26T09:33:10.686Z,99201.59
2023-04-26T09:35:40.942Z,99212.53
2023-04-26T09:38:13.600Z,99207.63
2023-04-26T09:40:44.617Z,99208.53
2023-04-26T09:43:14.843Z,99203.19
2023-04-26T09:45:50.591Z,99202.78
2023-04-26T09:48:23.873Z,99188.66
2023-04-26T09:50:54.588Z,99181.38
2023-04-26T09:53:32.116Z,99189.06
2023-04-26T09:56:09.408Z,99181.38
2023-04-26T09:58:39.712Z,99202.53
2023-04-26T10:01:10.118Z,99194.63
2023-04-26T10:03:40.769Z,99184.41
2023-04-26T10:06:09.793Z,99185.22
2023-04-26T10:08:38.627Z,99179.28
2023-04-26T10:11:10.508Z,99179.25
2023-04-26T10:13:40.491Z,99180.06
2023-04-26T10:16:10.234Z,99181.72
2023-04-26T10:18:40.646Z,99185.09
2023-04-26T10:21:16.229Z,99181.31
2023-04-26T10:23:45.224Z,99178.06
2023-04-26T10:26:51.686Z,99179.16
2023-04-26T10:29:20.698Z,99166.50
2023-04-26T10:32:16.420Z,99176.66
2023-04-26T10:34:47.328Z,99175.72
2023-04-26T10:37:18.232Z,99171.16
2023-04-26T10:39:48.709Z,99179.38
2023-04-26T10:42:27.584Z,99168.81
2023-04-26T10:44:57.264Z,99176.59
2023-04-26T10:47:32.519Z,99178.66
2023-04-26T10:50:09.191Z,99172.81
2023-04-26T10:52:39.298Z,99176.19
2023-04-26T10:55:09.729Z,99171.94
2023-04-26T10:57:54.340Z,99170.19
2023-04-26T11:00:34.215Z,99167.44
2023-04-26T11:03:09.593Z,99155.72
2023-04-26T11:05:49.542Z,99134.72
2023-04-26T11:08:20.622Z,99137.31
2023-04-26T11:11:09.733Z,99147.47
2023-04-26T11:13:41.412Z,99152.41
2023-04-26T11:16:12.534Z,99151.13
2023-04-26T11:18:43.028Z,99168.59
2023-04-26T11:21:15.408Z,99165.63
2023-04-26T11:23:43.903Z,99153.78
2023-04-26T11:26:12.576Z,99145.78
2023-04-26T11:28:41.207Z,99153.22
2023-04-26T11:31:09.700Z,99143.59
2023-04-26T11:33:38.143Z,99133.53
2023-04-26T11:36:07.818Z,99127.94
2023-04-26T11:38:39.177Z,99122.66
2023-04-26T11:41:07.591Z,99114.28
2023-04-26T11:43:37.628Z,99127.63
2023-04-26T11:46:07.954Z,99121.72
2023-04-26T11:48:38.502Z,99120.06
2023-04-26T11:51:09.424Z,99121.66
2023-04-26T11:53:40.738Z,99136.31
2023-04-26T11:56:17.255Z,99139.19
2023-04-26T11:58:48.090Z,99137.13
2023-04-26T12:01:23.773Z,99133.97
2023-04-26T12:03:53.946Z,99130.03
2023-04-26T12:06:32.934Z,99146.66
2023-04-26T12:09:06.227Z,99135.53
2023-04-26T12:11:34.777Z,99134.31
2023-04-26T12:14:04.037Z,99131.50
2023-04-26T12:16:32.877Z,99119.72
2023-04-26T12:19:01.370Z,99114.84
2023-04-26T12:21:30.840Z,99099.00
2023-04-26T12:23:59.749Z,99102.16
2023-04-26T12:26:45.883Z,99090.78
2023-04-26T12:29:14.392Z,99092.63
2023-04-26T12:31:42.872Z,99086.56
2023-04-26T12:34:11.450Z,99087.53
2023-04-26T12:36:43.312Z,99096.13
2023-04-26T12:39:13.514Z,99095.06
2023-04-26T12:41:42.296Z,99105.50
2023-04-26T12:44:14.431Z,99119.03
2023-04-26T12:46:43.045Z,99115.34
2023-04-26T12:49:12.701Z,99120.13
2023-04-26T12:51:41.130Z,99129.06
2023-04-26T12:54:09.610Z,99126.47
2023-04-26T12:56:43.881Z,99116.91
2023-04-26T12:59:13.921Z,99120.88
2023-04-26T13:01:42.332Z,99106.81
2023-04-26T13:04:11.418Z,99109.03
2023-04-26T13:06:40.120Z,99111.78
2023-04-26T13:09:09.138Z,99126.84
2023-04-26T13:11:37.848Z,99120.84
2023-04-26T13:14:07.607Z,99118.22
2023-04-26T13:16:42.334Z,99128.78
2023-04-26T13:19:10.904Z,99127.66
2023-04-26T13:21:39.511Z,99124.72
2023-04-26T13:24:08.609Z,99125.56
2023-04-26T13:26:37.141Z,99140.31
2023-04-26T13:29:05.663Z,99156.38
2023-04-26T13:31:34.195Z,99137.19
2023-04-26T13:34:07.088Z,99137.16
2023-04-26T13:36:35.517Z,99135.78
2023-04-26T13:39:05.152Z,99125.69
2023-04-26T13:41:35.003Z,99122.91
2023-04-26T13:44:04.690Z,99128.72
2023-04-26T13:46:33.394Z,99128.72
2023-04-26T13:49:01.832Z,99127.56
2023-04-26T13:51:32.950Z,99125.53
2023-04-26T13:54:01.476Z,99126.09
2023-04-26T13:56:30.024Z,99115.59
2023-04-26T13:58:58.441Z,99117.78
2023-04-26T14:01:27.534Z,99125.47
2023-04-26T14:03:56.430Z,99120.22
2023-04-26T14:06:25.000Z,99116.91
2023-04-26T14:08:54.914Z,99118.81
2023-04-26T14:11:24.446Z,99119.06
2023-04-26T14:13:56.116Z,99116.56
2023-04-26T14:16:25.548Z,99111.31
2023-04-26T14:18:54.259Z,99112.41
2023-04-26T14:21:22.843Z,99106.03
2023-04-26T14:23:51.356Z,99107.88
2023-04-26T14:26:21.649Z,99118.81
2023-04-26T14:28:50.096Z,99124.38
2023-04-26T14:31:19.835Z,99127.06
2023-04-26T14:33:48.633Z,99123.50
2023-04-26T14:36:17.048Z,99118.34
2023-04-26T14:38:47.463Z,99123.47
2023-04-26T14:41:16.793Z,99129.22
2023-04-26T14:43:47.983Z,99135.09
2023-04-26T14:46:16.891Z,99128.63
2023-04-26T14:48:45.748Z,99131.94
2023-04-26T14:51:14.308Z,99131.78
2023-04-26T14:53:42.782Z,99131.75
2023-04-26T14:56:11.835Z,99136.34
2023-04-26T14:58:40.222Z,99131.41
2023-04-26T15:01:10.600Z,99127.16
2023-04-26T15:03:39.675Z,99124.06
2023-04-26T15:06:10.790Z,99125.22
2023-04-26T15:08:39.240Z,99128.16
2023-04-26T15:11:07.938Z,99130.94
2023-04-26T15:13:36.539Z,99122.44
2023-04-26T15:16:07.856Z,99131.31
2023-04-26T15:18:37.894Z,99129.81
2023-04-26T15:21:06.403Z,99136.03
2023-04-26T15:23:34.836Z,99138.66
2023-04-26T15:26:03.899Z,99133.38
2023-04-26T15:28:32.873Z,99136.19
2023-04-26T15:31:04.687Z,99138.78
2023-04-26T15:33:33.470Z,99132.56
2023-04-26T15:36:03.428Z,99127.81
2023-04-26T15:38:32.126Z,99127.50
2023-04-26T15:41:00.659Z,99138.13
2023-04-26T15:43:29.354Z,99132.22
2023-04-26T15:45:57.829Z,99132.53
2023-04-26T15:48:27.176Z,99138.91
2023-04-26T15:50:56.951Z,99141.97
2023-04-26T15:53:27.087Z,99147.97
2023-04-26T15:55:55.590Z,99141.56
2023-04-26T15:58:24.336Z,99144.00
2023-04-26T16:00:53.111Z,99157.53
2023-04-26T16:03:21.857Z,99157.50
2023-04-26T16:05:50.614Z,99156.94
2023-04-26T16:08:38.795Z,99157.09
2023-04-26T16:11:09.611Z,99152.03
2023-04-26T16:13:38.030Z,99157.13
2023-04-26T16:16:10.789Z,99156.81
2023-04-26T16:18:40.260Z,99151.09
2023-04-26T16:21:09.901Z,99147.22
2023-04-26T16:23:39.358Z,99148.16
2023-04-26T16:26:09.805Z,99146.78
2023-04-26T16:28:38.493Z,99148.81
2023-04-26T16:31:07.428Z,99151.72
2023-04-26T16:33:35.996Z,99150.72
2023-04-26T16:36:04.677Z,99151.66
2023-04-26T16:38:33.078Z,99156.22
2023-04-26T16:41:02.623Z,99150.78
2023-04-26T16:43:33.821Z,99157.59
2023-04-26T16:46:03.976Z,99154.44
2023-04-26T16:48:33.354Z,99156.50
2023-04-26T16:51:02.928Z,99155.50
2023-04-26T16:53:33.528Z,99165.38
2023-04-26T16:56:02.028Z,99159.75
2023-04-26T16:58:31.828Z,99154.94
2023-04-26T17:01:00.484Z,99158.66
2023-04-26T17:03:29.241Z,99157.31
2023-04-26T17:05:57.931Z,99162.69
2023-04-26T17:08:27.387Z,99162.28
2023-04-26T17:10:56.233Z,99168.50
2023-04-26T17:13:29.403Z,99171.19
2023-04-26T17:15:59.473Z,99173.38
2023-04-26T17:18:27.964Z,99174.06
2023-04-26T17:20:56.699Z,99178.91
2023-04-26T17:23:26.026Z,99181.28
2023-04-26T17:25:55.392Z,99179.50
2023-04-26T17:28:24.395Z,99189.66
2023-04-26T17:30:52.976Z,99190.97
2023-04-26T17:33:26.485Z,99194.75
2023-04-26T17:35:54.924Z,99195.44
2023-04-26T17:38:24.412Z,99201.66
2023-04-26T17:40:56.549Z,99202.03
2023-04-26T17:43:26.457Z,99208.47
2023-04-26T17:45:55.856Z,99213.78
2023-04-26T17:48:26.410Z,99208.03
2023-04-26T17:50:55.609Z,99210.88
2023-04-26T17:53:26.027Z,99226.97
2023-04-26T17:55:55.311Z,99224.28
2023-04-26T17:58:25.229Z,99226.00
2023-04-26T18:00:54.869Z,99233.25
2023-04-26T18:03:23.790Z,99233.88
2023-04-26T18:05:54.071Z,99240.00
2023-04-26T18:08:22.903Z,99245.59
2023-04-26T18:10:53.876Z,99247.63
2023-04-26T18:13:22.775Z,99252.91
2023-04-26T18:15:51.596Z,99252.19
2023-04-26T18:18:20.579Z,99258.28
2023-04-26T18:20:49.676Z,99260.28
2023-04-26T18:23:21.938Z,99263.13
2023-04-26T18:25:52.024Z,99268.75
2023-04-26T18:28:20.894Z,99269.63
2023-04-26T18:30:49.520Z,99272.72
2023-04-26T18:33:18.373Z,99276.66
2023-04-26T18:35:50.015Z,99274.25
2023-04-26T18:38:20.473Z,99281.75
2023-04-26T18:40:50.122Z,99278.50
2023-04-26T18:43:19.411Z,99286.88
2023-04-26T18:45:49.119Z,99292.47
2023-04-26T18:48:19.045Z,99294.16
2023-04-26T18:50:54.292Z,99301.38
2023-04-26T18:53:25.735Z,99310.53
2023-04-26T18:55:59.092Z,99308.38
2023-04-26T18:58:29.672Z,99305.66
2023-04-26T19:00:59.364Z,99317.28
2023-04-26T19:03:29.440Z,99321.44
2023-04-26T19:06:00.296Z,99333.88
2023-04-26T19:08:30.904Z,99319.00
2023-04-26T19:11:01.560Z,99323.19
2023-04-26T19:13:30.708Z,99329.28
2023-04-26T19:16:00.089Z,99328.19
2023-04-26T19:18:29.098Z,99334.03
2023-04-26T19:20:58.458Z,99326.31
2023-04-26T19:23:30.765Z,99324.94
2023-04-26T19:26:06.074Z,99324.72
2023-04-26T19:28:36.384Z,99333.81
2023-04-26T19:31:05.923Z,99327.75
2023-04-26T19:33:36.770Z,99331.09
2023-04-26T19:36:07.585Z,99334.41
2023-04-26T19:38:38.600Z,99333.88
2023-04-26T19:41:14.677Z,99333.34
2023-04-26T19:43:44.227Z,99338.59
2023-04-26T19:46:14.141Z,99334.47
2023-04-26T19:48:43.619Z,99344.97
2023-04-26T19:51:18.622Z,99341.97
2023-04-26T19:53:50.601Z,99345.81
2023-04-26T19:56:22.222Z,99350.81
2023-04-26T19:58:52.236Z,99348.59
2023-04-26T20:01:21.647Z,99352.78
2023-04-26T20:04:00.463Z,99350.84
2023-04-26T20:06:29.649Z,99349.22
2023-04-26T20:09:02.083Z,99344.56
2023-04-26T20:11:32.904Z,99356.44
2023-04-26T20:14:01.823Z,99356.47
2023-04-26T20:16:31.086Z,99355.66
2023-04-26T20:19:00.762Z,99360.09
2023-04-26T20:21:30.302Z,99359.84
2023-04-26T20:24:03.000Z,99358.47
2023-04-26T20:26:33.024Z,99365.91
2023-04-26T20:29:02.365Z,99367.84
2023-04-26T20:31:31.415Z,99363.47
2023-04-26T20:34:00.714Z,99361.78
2023-04-26T20:36:29.526Z,99363.72
2023-04-26T20:38:59.734Z,99363.19
2023-04-26T20:41:28.634Z,99368.16
2023-04-26T20:43:58.103Z,99362.09
2023-04-26T20:46:27.539Z,99366.78
2023-04-26T20:48:56.545Z,99378.94
2023-04-26T20:51:25.022Z,99378.41
2023-04-26T20:53:53.913Z,99376.44
2023-04-26T20:56:23.730Z,99366.78
2023-04-26T20:58:52.238Z,99382.53
2023-04-26T21:01:20.794Z,99381.72
2023-04-26T21:03:49.378Z,99382.25
2023-04-26T21:06:17.890Z,99393.81
2023-04-26T21:08:46.329Z,99384.47
2023-04-26T21:11:14.716Z,99392.97
2023-04-26T21:13:45.794Z,99391.06
2023-04-26T21:16:14.354Z,99399.03
2023-04-26T21:18:42.912Z,99400.69
2023-04-26T21:21:11.300Z,99402.34
2023-04-26T21:23:39.713Z,99404.28
2023-04-26T21:26:08.134Z,99397.13
2023-04-26T21:28:36.674Z,99393.81
2023-04-26T21:31:08.817Z,99392.44
2023-04-26T21:33:37.234Z,99394.38
2023-04-26T21:36:06.918Z,99408.75
2023-04-26T21:38:35.326Z,99402.13
2023-04-26T21:41:03.869Z,99402.16
2023-04-26T21:43:32.443Z,99398.56
2023-04-26T21:46:00.834Z,99409.34
2023-04-26T21:48:30.683Z,99409.06
2023-04-26T21:50:59.033Z,99414.88
2023-04-26T21:53:27.392Z,99418.72
2023-04-26T21:55:56.068Z,99429.75
2023-04-26T21:58:24.697Z,99434.41
2023-04-26T22:00:53.242Z,99433.34
2023-04-26T22:03:22.045Z,99438.84
2023-04-26T22:05:51.937Z,99438.00
2023-04-26T22:08:20.381Z,99444.06
2023-04-26T22:10:48.795Z,99452.34
2023-04-26T22:13:17.321Z,99447.66
2023-04-26T22:15:45.685Z,99457.84
2023-04-26T22:18:14.117Z,99447.66
2023-04-26T22:20:42.690Z,99454.84
2023-04-26T22:23:12.526Z,99464.75
2023-04-26T22:25:40.966Z,99460.91
2023-04-26T22:28:09.383Z,99460.34
2023-04-26T22:30:37.841Z,99452.63
2023-04-26T22:33:07.071Z,99463.09
2023-04-26T22:35:36.504Z,99461.72
2023-04-26T22:38:04.977Z,99462.56
2023-04-26T22:40:34.997Z,99467.25
2023-04-26T22:43:03.630Z,99467.53
2023-04-26T22:45:33.212Z,99466.69
2023-04-26T22:48:01.725Z,99467.78
2023-04-26T22:50:30.192Z,99462.84
2023-04-26T22:52:58.588Z,99459.53
2023-04-26T22:55:27.395Z,99472.19
2023-04-26T22:57:57.226Z,99468.91
2023-04-26T23:00:26.094Z,99479.09
2023-04-26T23:02:54.621Z,99471.66
2023-04-26T23:05:23.269Z,99478.00
2023-04-26T23:07:51.831Z,99477.72
2023-04-26T23:10:20.443Z,99485.72
2023-04-26T23:12:50.790Z,99488.19
2023-04-26T23:15:20.800Z,99483.81
2023-04-26T23:17:49.353Z,99489.88
2023-04-26T23:20:17.923Z,99490.66
2023-04-26T23:22:46.340Z,99501.44
2023-04-26T23:25:14.790Z,99496.75
2023-04-26T23:27:43.565Z,99492.03
2023-04-26T23:30:13.981Z,99499.50
2023-04-26T23:32:43.798Z,99502.25
2023-04-26T23:35:12.289Z,99505.03
2023-04-26T23:37:40.955Z,99505.03
2023-04-26T23:40:10.860Z,99497.00
2023-04-26T23:42:39.325Z,99501.44
2023-04-26T23:45:09.826Z,99508.88
2023-04-26T23:47:38.345Z,99504.19
2023-04-26T23:50:09.363Z,99504.72
2023-04-26T23:52:37.770Z,99501.69
2023-04-26T23:55:08.133Z,99501.44
2023-04-26T23:57:37.214Z,99500.59
